Time;durP1;ratioP1;P1;durP2;ratioP2;P2;SDS_P1;SDS_P2;PMS_P1;PMS_P2;Temp;Humidity;BMP_temperature;BMP_pressure;BME280_temperature;BME280_humidity;BME280_pressure;Samples;Min_cycle;Max_cycle;Signal;HPM_P1;HPM_P2
2022/10/21 00:00:39;;;;;;;20.27;13.40;;;;;;;14.42;100.00;100848.19;5039840;28;20494;-72
2022/10/21 00:03:05;;;;;;;17.85;12.05;;;;;;;14.44;100.00;100848.22;5038927;28;20037;-73
2022/10/21 00:05:30;;;;;;;20.98;12.10;;;;;;;14.44;100.00;100843.94;5035947;28;20040;-73
2022/10/21 00:07:56;;;;;;;21.95;12.23;;;;;;;14.44;100.00;100845.66;4999888;28;20147;-73
2022/10/21 00:10:21;;;;;;;21.02;12.77;;;;;;;14.43;100.00;100837.00;5023875;28;20045;-73
2022/10/21 00:12:47;;;;;;;18.10;12.57;;;;;;;14.44;100.00;100831.00;5023695;28;20044;-73
2022/10/21 00:15:12;;;;;;;21.80;12.18;;;;;;;14.40;100.00;100818.00;5020379;28;20041;-73
2022/10/21 00:17:40;;;;;;;16.80;11.65;;;;;;;14.46;100.00;100824.13;5021228;28;20045;-73
2022/10/21 00:20:08;;;;;;;20.40;12.55;;;;;;;14.44;100.00;100832.72;5042651;28;20068;-73
2022/10/21 00:22:33;;;;;;;17.15;11.85;;;;;;;14.43;100.00;100826.63;5043947;28;20036;-73
2022/10/21 00:24:59;;;;;;;19.25;12.18;;;;;;;14.44;100.00;100835.31;5018876;28;20025;-73
2022/10/21 00:27:24;;;;;;;22.00;11.95;;;;;;;14.42;100.00;100822.31;5030233;28;20067;-73
2022/10/21 00:29:50;;;;;;;20.55;12.43;;;;;;;14.41;100.00;100815.41;5038105;28;20030;-73
2022/10/21 00:32:15;;;;;;;21.90;12.48;;;;;;;14.42;100.00;100816.28;5041949;28;20032;-73
2022/10/21 00:34:42;;;;;;;19.95;12.05;;;;;;;14.43;100.00;100808.53;5038564;28;20033;-73
2022/10/21 00:37:11;;;;;;;18.13;12.50;;;;;;;14.40;100.00;100811.09;5043503;28;20029;-73
2022/10/21 00:39:37;;;;;;;19.60;12.93;;;;;;;14.41;100.00;100815.41;5038408;28;20025;-73
2022/10/21 00:42:05;;;;;;;19.80;12.93;;;;;;;14.37;100.00;100808.47;5039790;28;20387;-73
2022/10/21 00:44:31;;;;;;;16.77;11.70;;;;;;;14.37;100.00;100808.47;5037820;28;20025;-73
2022/10/21 00:47:07;;;;;;;18.25;12.05;;;;;;;14.39;100.00;100811.09;5042435;28;20051;-73
2022/10/21 00:49:40;;;;;;;19.33;12.55;;;;;;;14.35;100.00;100815.34;5041359;28;20030;-73
2022/10/21 00:52:14;;;;;;;21.30;12.38;;;;;;;14.36;100.00;100826.56;5042910;28;20095;-73
2022/10/21 00:54:42;;;;;;;18.08;11.48;;;;;;;14.37;100.00;100815.34;5043000;28;20033;-73
2022/10/21 00:57:08;;;;;;;21.02;12.45;;;;;;;14.36;100.00;100816.22;5016864;28;20037;-73
2022/10/21 00:59:39;;;;;;;18.58;12.52;;;;;;;14.35;100.00;100815.34;5026042;28;20035;-73
2022/10/21 01:02:05;;;;;;;16.02;11.88;;;;;;;14.35;100.00;100805.00;5042275;28;20030;-73
2022/10/21 01:04:30;;;;;;;22.67;12.43;;;;;;;14.35;100.00;100799.81;5042813;28;20041;-74
2022/10/21 01:06:56;;;;;;;20.92;13.02;;;;;;;14.35;100.00;100798.97;5041166;28;20037;-73
2022/10/21 01:09:22;;;;;;;16.30;11.88;;;;;;;14.36;100.00;100796.38;5041625;28;20475;-73
2022/10/21 01:11:49;;;;;;;19.73;11.98;;;;;;;14.37;100.00;100787.75;5044446;28;20033;-73
2022/10/21 01:14:45;;;;;;;15.95;11.50;;;;;;;14.42;100.00;100788.69;5041399;28;20108;-73
2022/10/21 01:17:22;;;;;;;19.90;12.82;;;;;;;14.38;100.00;100789.53;5042352;28;20091;-73
2022/10/21 01:20:09;;;;;;;20.80;12.45;;;;;;;14.40;100.00;100786.94;5035727;28;20742;-73
2022/10/21 01:23:20;;;;;;;21.52;12.60;;;;;;;14.39;100.00;100775.75;5023249;28;20056;-73
2022/10/21 01:26:04;;;;;;;20.23;11.73;;;;;;;14.35;100.00;100765.34;5018134;28;20029;-73
2022/10/21 01:29:07;;;;;;;21.60;11.95;;;;;;;14.40;100.00;100776.59;5043713;28;20037;-73
2022/10/21 01:31:45;;;;;;;21.20;11.80;;;;;;;14.34;100.00;100753.25;5024347;28;20028;-73
2022/10/21 01:34:27;;;;;;;19.60;11.95;;;;;;;14.34;100.00;100754.13;5044652;28;20125;-73
2022/10/21 01:36:58;;;;;;;21.73;11.60;;;;;;;14.30;100.00;100754.06;5036586;28;20017;-73
2022/10/21 01:39:37;;;;;;;17.38;11.48;;;;;;;14.34;100.00;100750.66;5040925;28;20059;-73
2022/10/21 01:42:02;;;;;;;16.55;11.15;;;;;;;14.27;100.00;100749.75;5017370;28;20422;-73
2022/10/21 01:44:42;;;;;;;16.67;12.20;;;;;;;14.32;100.00;100747.19;5037487;28;20021;-73
2022/10/21 01:47:10;;;;;;;19.77;11.73;;;;;;;14.25;100.00;100745.38;5037929;28;20151;-73
2022/10/21 01:49:39;;;;;;;15.82;11.30;;;;;;;14.26;100.00;100736.75;5040817;28;20024;-73
2022/10/21 01:52:06;;;;;;;;;;;;;;;14.40;100.00;100735.22;5041485;28;20515;-73
2022/10/21 01:54:36;;;;;;;19.15;11.73;;;;;;;14.24;100.00;100731.59;5044028;28;19916;-73
2022/10/21 01:57:05;;;;;;;15.88;11.07;;;;;;;14.19;100.00;100728.94;5041398;28;20025;-73
2022/10/21 01:59:32;;;;;;;16.73;11.43;;;;;;;14.19;100.00;100730.66;5040753;28;20112;-73
2022/10/21 02:02:01;;;;;;;19.60;11.43;;;;;;;14.17;100.00;100727.19;5041027;28;20037;-73
2022/10/21 02:04:29;;;;;;;18.23;11.30;;;;;;;14.15;100.00;100718.56;5044438;28;20013;-73
2022/10/21 02:06:55;;;;;;;20.63;11.23;;;;;;;14.12;100.00;100719.38;5043070;28;20111;-73
2022/10/21 02:09:20;;;;;;;15.68;10.35;;;;;;;14.13;100.00;100709.91;5043269;28;20044;-73
2022/10/21 02:11:49;;;;;;;15.38;10.35;;;;;;;14.11;100.00;100709.03;5037220;28;20120;-72
2022/10/21 02:14:23;;;;;;;16.98;10.88;;;;;;;14.15;100.00;100708.22;5042621;28;20029;-73
2022/10/21 02:16:52;;;;;;;15.05;11.15;;;;;;;14.09;100.00;100703.00;5041288;28;20048;-72
2022/10/21 02:19:19;;;;;;;17.50;11.30;;;;;;;14.09;100.00;100711.59;5042294;28;20025;-72
2022/10/21 02:21:47;;;;;;;19.30;10.93;;;;;;;14.07;100.00;100710.69;5033649;28;20029;-73
2022/10/21 02:24:35;;;;;;;17.30;10.20;;;;;;;14.05;100.00;100707.25;5039572;28;20048;-73
2022/10/21 02:27:00;;;;;;;16.73;10.68;;;;;;;14.07;100.00;100704.66;5035837;28;20033;-73
2022/10/21 02:29:31;;;;;;;15.63;11.07;;;;;;;14.03;100.00;100690.00;5023819;28;20029;-73
2022/10/21 02:32:30;;;;;;;24.00;10.68;;;;;;;14.06;100.00;100701.22;5035753;28;20079;-73
2022/10/21 02:34:59;;;;;;;;;;;;;;;14.17;100.00;100694.44;5017026;28;20429;-73
2022/10/21 02:37:33;;;;;;;14.77;11.03;;;;;;;14.03;100.00;100703.78;5040477;28;19917;-73
2022/10/21 02:40:07;;;;;;;22.10;10.70;;;;;;;13.92;100.00;100701.06;5036769;28;20800;-73
2022/10/21 02:42:40;;;;;;;15.43;10.55;;;;;;;13.95;100.00;100706.28;5037991;28;20498;-73
2022/10/21 02:45:08;;;;;;;16.67;10.80;;;;;;;13.90;100.00;100704.50;5012514;28;20061;-73
2022/10/21 02:47:35;;;;;;;15.10;10.88;;;;;;;13.89;100.00;100711.38;5035524;28;20033;-72
2022/10/21 02:50:01;;;;;;;16.23;10.32;;;;;;;13.77;100.00;100698.31;5039229;28;20074;-72
2022/10/21 02:52:26;;;;;;;18.83;10.57;;;;;;;13.80;100.00;100700.06;5039302;28;20387;-73
2022/10/21 02:54:51;;;;;;;16.50;10.48;;;;;;;13.82;100.00;100711.28;5018808;28;20716;-72
2022/10/21 02:57:17;;;;;;;13.77;10.23;;;;;;;13.81;100.00;100706.94;5039044;28;20241;-72
2022/10/21 02:59:42;;;;;;;18.05;10.20;;;;;;;13.83;100.00;100695.81;5040063;28;20098;-73
2022/10/21 03:02:07;;;;;;;12.55;10.27;;;;;;;13.83;100.00;100694.91;5018291;28;20032;-73
2022/10/21 03:04:33;;;;;;;20.08;10.63;;;;;;;13.85;100.00;100690.66;5037582;28;20129;-73
2022/10/21 03:06:58;;;;;;;18.45;10.98;;;;;;;13.83;100.00;100682.88;5022643;28;20028;-73
2022/10/21 03:09:24;;;;;;;14.30;10.27;;;;;;;13.87;100.00;100676.00;5041095;28;20040;-72
2022/10/21 03:11:49;;;;;;;15.15;10.70;;;;;;;13.86;100.00;100684.63;5039380;28;20053;-73
2022/10/21 03:14:14;;;;;;;16.75;10.70;;;;;;;13.87;100.00;100687.22;5041461;28;20036;-72
2022/10/21 03:16:40;;;;;;;15.90;10.10;;;;;;;13.83;100.00;100682.88;5019442;28;20041;-73
2022/10/21 03:19:05;;;;;;;15.18;9.50;;;;;;;13.85;100.00;100682.88;5038805;28;20040;-73
2022/10/21 03:21:30;;;;;;;19.63;10.07;;;;;;;13.84;100.00;100676.84;5022347;28;20175;-73
2022/10/21 03:23:56;;;;;;;14.20;10.32;;;;;;;13.81;100.00;100674.22;5018574;28;20056;-73
2022/10/21 03:26:21;;;;;;;15.23;9.38;;;;;;;13.82;100.00;100688.88;5042112;28;20025;-72
2022/10/21 03:28:47;;;;;;;14.93;9.98;;;;;;;13.81;100.00;100686.28;5015245;28;20037;-73
2022/10/21 03:31:12;;;;;;;21.10;9.70;;;;;;;13.76;100.00;100696.56;5039418;28;20025;-73
2022/10/21 03:33:37;;;;;;;18.83;10.63;;;;;;;13.74;100.00;100690.50;5002793;28;20128;-73
2022/10/21 03:36:03;;;;;;;14.98;9.85;;;;;;;13.71;100.00;100690.47;5038859;28;20033;-72
2022/10/21 03:38:29;;;;;;;17.40;10.02;;;;;;;13.70;100.00;100683.56;5041727;28;20048;-72
2022/10/21 03:40:54;;;;;;;15.38;9.30;;;;;;;13.69;100.00;100693.03;5029121;28;20387;-73
2022/10/21 03:43:19;;;;;;;13.77;8.80;;;;;;;13.66;100.00;100687.84;5048529;28;20157;-72
2022/10/21 03:45:47;;;;;;;13.90;9.40;;;;;;;13.69;100.00;100697.31;5031234;28;20519;-73
2022/10/21 03:48:12;;;;;;;14.68;9.18;;;;;;;13.66;100.00;100692.13;5047592;28;20032;-73
2022/10/21 03:50:37;;;;;;;16.63;9.30;;;;;;;13.63;100.00;100687.78;5044351;28;20040;-73
2022/10/21 03:53:03;;;;;;;15.02;9.05;;;;;;;13.61;100.00;100678.28;5049329;28;20463;-72
2022/10/21 03:55:28;;;;;;;14.98;9.05;;;;;;;13.59;100.00;100683.44;5017274;28;20029;-72
2022/10/21 03:57:54;;;;;;;16.15;9.07;;;;;;;13.61;100.00;100678.28;5042202;28;20021;-73
2022/10/21 04:00:20;;;;;;;15.40;9.18;;;;;;;13.57;100.00;100681.66;5042578;28;20485;-73
2022/10/21 04:02:45;;;;;;;16.55;9.07;;;;;;;13.56;100.00;100674.78;5048868;28;20036;-72
2022/10/21 04:05:12;;;;;;;12.30;7.93;;;;;;;13.61;100.00;100671.41;5050631;28;20020;-73
2022/10/21 04:07:38;;;;;;;13.25;8.85;;;;;;;13.59;100.00;100669.63;5027814;28;20041;-72
2022/10/21 04:10:05;;;;;;;14.00;8.05;;;;;;;13.59;100.00;100685.13;5051492;28;20040;-73
2022/10/21 04:12:30;;;;;;;15.18;7.78;;;;;;;13.58;100.00;100678.22;5035134;28;20032;-72
2022/10/21 04:14:56;;;;;;;12.95;8.00;;;;;;;13.60;100.00;100684.31;5044369;28;20079;-72
2022/10/21 04:17:21;;;;;;;16.85;8.52;;;;;;;13.54;100.00;100674.75;5050855;28;20423;-73
2022/10/21 04:19:47;;;;;;;11.80;7.32;;;;;;;13.54;100.00;100673.91;5050258;28;20102;-73
2022/10/21 04:22:12;;;;;;;12.52;7.57;;;;;;;13.52;100.00;100689.34;5049120;28;20029;-73
2022/10/21 04:24:38;;;;;;;13.25;7.95;;;;;;;13.49;100.00;100678.13;5033567;28;20043;-73
2022/10/21 04:27:03;;;;;;;14.88;7.85;;;;;;;13.47;100.00;100685.88;5043423;28;20113;-73
2022/10/21 04:29:28;;;;;;;13.82;7.20;;;;;;;13.47;100.00;100685.88;5053002;28;20039;-73
2022/10/21 04:31:54;;;;;;;12.82;7.43;;;;;;;13.47;100.00;100684.97;5046369;28;21875;-73
2022/10/21 04:34:19;;;;;;;12.80;7.30;;;;;;;13.45;100.00;100681.50;5042403;28;20056;-73
2022/10/21 04:36:44;;;;;;;11.80;7.03;;;;;;;13.45;100.00;100673.75;5039987;28;20021;-73
2022/10/21 04:39:10;;;;;;;11.48;7.03;;;;;;;13.43;100.00;100675.47;5025433;28;20061;-73
2022/10/21 04:41:35;;;;;;;14.35;7.43;;;;;;;13.41;100.00;100676.31;5041016;28;20483;-73
2022/10/21 04:44:01;;;;;;;12.20;7.05;;;;;;;13.40;100.00;100684.03;5022629;28;20329;-73
2022/10/21 04:46:26;;;;;;;13.75;7.07;;;;;;;13.40;100.00;100694.34;5045537;28;20059;-73
2022/10/21 04:48:52;;;;;;;17.13;7.35;;;;;;;13.36;100.00;100679.69;5037869;28;20399;-74
2022/10/21 04:51:17;;;;;;;13.30;7.32;;;;;;;13.39;100.00;100682.28;5039043;28;20087;-73
2022/10/21 04:53:43;;;;;;;11.32;6.95;;;;;;;13.44;100.00;100690.97;5043445;28;20033;-73
2022/10/21 04:56:08;;;;;;;9.93;6.72;;;;;;;13.44;100.00;100688.41;5035397;28;20044;-73
2022/10/21 04:58:34;;;;;;;14.63;7.15;;;;;;;13.45;100.00;100684.97;5026716;28;20071;-73
2022/10/21 05:00:59;;;;;;;11.48;6.90;;;;;;;13.46;100.00;100683.25;5019049;28;20087;-73
2022/10/21 05:03:25;;;;;;;11.52;6.75;;;;;;;13.47;100.00;100679.81;5025720;28;20029;-73
2022/10/21 05:05:51;;;;;;;9.77;6.80;;;;;;;13.47;100.00;100685.88;5035480;28;20025;-73
2022/10/21 05:08:17;;;;;;;14.25;6.90;;;;;;;13.47;100.00;100679.81;5035467;28;20021;-73
2022/10/21 05:10:43;;;;;;;13.25;7.18;;;;;;;13.45;100.00;100686.69;5041003;28;20115;-73
2022/10/21 05:13:08;;;;;;;13.10;6.43;;;;;;;13.48;100.00;100687.59;5035375;28;20164;-74
2022/10/21 05:15:33;;;;;;;10.88;6.60;;;;;;;13.40;100.00;100679.72;5036118;28;20037;-73
2022/10/21 05:17:59;;;;;;;13.13;6.40;;;;;;;13.40;100.00;100684.03;5040752;28;20029;-74
2022/10/21 05:20:25;;;;;;;14.73;6.38;;;;;;;13.40;100.00;100674.56;5045727;28;20090;-74
2022/10/21 05:22:51;;;;;;;11.32;6.20;;;;;;;13.38;100.00;100686.59;5047825;28;20163;-74
2022/10/21 05:25:17;;;;;;;12.10;6.60;;;;;;;13.41;100.00;100686.66;5047008;28;20472;-74
2022/10/21 05:27:42;;;;;;;11.50;6.07;;;;;;;13.43;100.00;100678.91;5028612;28;20126;-74
2022/10/21 05:30:08;;;;;;;11.13;6.30;;;;;;;13.40;100.00;100677.13;5052479;28;20941;-75
2022/10/21 05:32:34;;;;;;;10.45;6.57;;;;;;;13.38;100.00;100665.94;5034754;28;20472;-75
2022/10/21 05:34:59;;;;;;;12.00;6.50;;;;;;;13.38;100.00;100657.31;5054091;28;20037;-74
2022/10/21 05:37:24;;;;;;;10.15;6.57;;;;;;;13.38;100.00;100657.31;5049815;28;20131;-72
2022/10/21 05:39:50;;;;;;;10.55;5.72;;;;;;;13.31;100.00;100650.34;5052185;28;20498;-72
2022/10/21 05:42:15;;;;;;;12.35;6.00;;;;;;;13.31;100.00;100653.78;5024380;28;20041;-72
2022/10/21 05:44:40;;;;;;;9.23;6.07;;;;;;;13.29;100.00;100650.34;5046234;28;20032;-73
2022/10/21 05:47:06;;;;;;;10.85;5.93;;;;;;;13.21;100.00;100641.59;5023264;28;20021;-73
2022/10/21 05:49:31;;;;;;;9.25;6.10;;;;;;;13.21;100.00;100638.16;5043625;28;20033;-73
2022/10/21 05:51:57;;;;;;;12.50;6.30;;;;;;;13.25;100.00;100638.22;5041374;28;20025;-73
2022/10/21 05:54:22;;;;;;;13.90;6.18;;;;;;;13.28;100.00;100638.25;5041306;28;20044;-73
2022/10/21 05:56:47;;;;;;;14.88;6.38;;;;;;;13.24;100.00;100645.94;5044054;28;20537;-72
2022/10/21 05:59:13;;;;;;;11.52;6.30;;;;;;;13.25;100.00;100642.50;5041498;28;20110;-72
2022/10/21 06:01:39;;;;;;;12.90;6.47;;;;;;;13.27;100.00;100633.06;5044584;28;20036;-73
2022/10/21 06:04:05;;;;;;;14.40;6.72;;;;;;;13.26;100.00;100639.06;5039891;28;20047;-73
2022/10/21 06:06:36;;;;;;;11.68;6.72;;;;;;;13.25;100.00;100635.63;5042797;28;20028;-73
2022/10/21 06:09:01;;;;;;;14.02;6.72;;;;;;;13.28;100.00;100633.06;5010729;28;20118;-72
2022/10/21 06:11:27;;;;;;;11.43;6.35;;;;;;;13.20;100.00;100637.25;5020573;28;20047;-71
2022/10/21 06:13:52;;;;;;;11.98;6.45;;;;;;;13.24;100.00;100641.66;5017573;28;20032;-71
2022/10/21 06:16:17;;;;;;;10.57;6.05;;;;;;;13.25;100.00;100633.03;5036893;28;20040;-71
2022/10/21 06:18:43;;;;;;;15.07;6.05;;;;;;;13.24;100.00;100630.47;5035482;28;20648;-72
2022/10/21 06:21:09;;;;;;;11.18;6.15;;;;;;;13.19;100.00;100627.78;5017716;28;20495;-71
2022/10/21 06:23:35;;;;;;;15.75;5.80;;;;;;;13.22;100.00;100634.72;5038721;28;20029;-71
2022/10/21 06:26:09;;;;;;;16.00;6.30;;;;;;;13.20;100.00;100632.09;5038475;28;20033;-71
2022/10/21 06:28:37;;;;;;;13.68;5.82;;;;;;;13.20;100.00;100632.09;5041359;28;20040;-71
2022/10/21 06:31:03;;;;;;;11.77;6.28;;;;;;;13.15;100.00;100626.84;5042166;28;20056;-71
2022/10/21 06:33:32;;;;;;;15.95;5.93;;;;;;;13.21;100.00;100636.44;5040304;28;20032;-71
2022/10/21 06:35:57;;;;;;;11.38;5.97;;;;;;;13.17;100.00;100639.81;5041965;28;20108;-71
2022/10/21 06:38:24;;;;;;;12.93;5.70;;;;;;;13.21;100.00;100639.00;5041227;28;20155;-71
2022/10/21 06:40:50;;;;;;;11.18;6.45;;;;;;;13.23;100.00;100637.34;5026690;28;20542;-71
2022/10/21 06:43:16;;;;;;;10.63;5.63;;;;;;;13.24;100.00;100639.06;5044125;28;20123;-71
2022/10/21 06:45:41;;;;;;;16.23;6.38;;;;;;;13.24;100.00;100645.94;5040713;28;22021;-71
2022/10/21 06:48:06;;;;;;;10.88;6.47;;;;;;;13.23;100.00;100639.91;5040225;28;20036;-72
2022/10/21 06:50:32;;;;;;;15.00;6.57;;;;;;;13.25;100.00;100655.41;5023841;28;20387;-72
2022/10/21 06:52:58;;;;;;;12.45;6.47;;;;;;;13.26;100.00;100670.06;5017439;28;20060;-71
2022/10/21 06:55:23;;;;;;;9.70;6.07;;;;;;;13.24;100.00;100667.47;5037891;28;20037;-71
2022/10/21 06:57:48;;;;;;;15.85;6.22;;;;;;;13.22;100.00;100674.31;5041138;28;20478;-72
2022/10/21 07:00:14;;;;;;;14.15;6.25;;;;;;;13.25;100.00;100679.53;5038153;28;20437;-71
2022/10/21 07:02:41;;;;;;;16.83;6.20;;;;;;;13.23;100.00;100694.13;5043354;28;20071;-71
2022/10/21 07:05:07;;;;;;;9.38;5.75;;;;;;;13.26;100.00;100698.47;5016479;28;20029;-71
2022/10/21 07:07:33;;;;;;;11.18;5.70;;;;;;;13.30;100.00;100695.09;5036903;28;20041;-71
2022/10/21 07:09:58;;;;;;;12.90;5.82;;;;;;;13.27;100.00;100703.66;5038372;28;21843;-72
2022/10/21 07:12:25;;;;;;;9.18;5.30;;;;;;;13.29;100.00;100701.09;5039416;28;20054;-71
2022/10/21 07:14:50;;;;;;;11.93;5.50;;;;;;;13.30;100.00;100708.88;5015425;28;20030;-71
2022/10/21 07:17:16;;;;;;;10.82;5.38;;;;;;;13.32;100.00;100702.00;5040388;28;20044;-72
2022/10/21 07:19:42;;;;;;;8.80;4.90;;;;;;;13.39;100.00;100721.91;5041762;28;20033;-72
2022/10/21 07:22:07;;;;;;;12.52;5.25;;;;;;;13.39;100.00;100711.56;5044730;28;22509;-72
2022/10/21 07:24:33;;;;;;;8.65;4.85;;;;;;;13.37;100.00;100722.75;5038995;28;20423;-70
2022/10/21 07:26:58;;;;;;;6.85;4.57;;;;;;;13.41;100.00;100719.38;5025895;28;20037;-70
2022/10/21 07:29:24;;;;;;;11.10;4.97;;;;;;;13.44;100.00;100721.09;5044230;28;20028;-70
2022/10/21 07:31:49;;;;;;;8.70;4.70;;;;;;;13.45;100.00;100712.50;5023223;28;20041;-70
2022/10/21 07:34:15;;;;;;;10.75;5.05;;;;;;;13.48;100.00;100720.31;5044276;28;21062;-70
2022/10/21 07:36:46;;;;;;;11.57;4.25;;;;;;;13.50;100.00;100718.59;5044690;28;20040;-71
2022/10/21 07:39:14;;;;;;;8.57;5.13;;;;;;;13.47;100.00;100722.03;5046241;28;20028;-70
2022/10/21 07:41:42;;;;;;;12.52;5.50;;;;;;;13.50;100.00;100721.19;5044857;28;20029;-73
2022/10/21 07:44:08;;;;;;;9.52;5.20;;;;;;;13.54;100.00;100721.25;5043425;28;20033;-71
2022/10/21 07:46:36;;;;;;;12.27;4.63;;;;;;;13.57;100.00;100725.59;5041191;28;20032;-71
2022/10/21 07:49:02;;;;;;;9.50;4.60;;;;;;;13.59;100.00;100722.19;5040765;28;20492;-71
2022/10/21 07:51:27;;;;;;;12.38;4.80;;;;;;;13.61;100.00;100717.03;5048965;28;20056;-71
2022/10/21 07:53:55;;;;;;;7.38;4.47;;;;;;;13.62;100.00;100722.22;5043216;28;20024;-71
2022/10/21 07:56:27;;;;;;;9.90;4.20;;;;;;;13.64;100.00;100728.28;5039877;28;20507;-70
2022/10/21 07:58:52;;;;;;;8.57;4.78;;;;;;;13.65;100.00;100722.28;5043009;28;20033;-70
2022/10/21 08:01:18;;;;;;;10.52;4.57;;;;;;;13.69;100.00;100729.19;5041635;28;20094;-70
2022/10/21 08:03:44;;;;;;;12.48;4.82;;;;;;;13.71;100.00;100731.81;5040537;28;20029;-69
2022/10/21 08:06:12;;;;;;;8.27;4.90;;;;;;;13.71;100.00;100731.81;5045132;28;20044;-70
2022/10/21 08:08:38;;;;;;;8.40;5.05;;;;;;;13.73;100.00;100729.25;5037752;28;20029;-69
2022/10/21 08:11:05;;;;;;;10.70;4.85;;;;;;;13.75;100.00;100736.16;5041693;28;20132;-68
2022/10/21 08:13:30;;;;;;;9.35;5.03;;;;;;;13.76;100.00;100737.91;5046085;28;20029;-69
2022/10/21 08:15:56;;;;;;;9.85;5.47;;;;;;;13.78;100.00;100727.59;5044974;28;20116;-69
2022/10/21 08:18:22;;;;;;;7.65;5.30;;;;;;;13.79;100.00;100721.59;5038565;28;20049;-69
2022/10/21 08:20:48;;;;;;;8.18;5.00;;;;;;;13.81;100.00;100720.75;5041524;28;20036;-68
2022/10/21 08:23:17;;;;;;;11.85;5.63;;;;;;;13.83;100.00;100721.66;5051000;28;20083;-68
2022/10/21 08:25:51;;;;;;;12.98;5.35;;;;;;;13.84;100.00;100720.78;5050715;28;20031;-69
2022/10/21 08:28:17;;;;;;;7.70;5.18;;;;;;;13.83;100.00;100710.41;5041099;28;20037;-69
2022/10/21 08:30:43;;;;;;;8.50;5.60;;;;;;;13.80;100.00;100700.06;5043596;28;20025;-68
2022/10/21 08:33:10;;;;;;;10.57;5.50;;;;;;;13.85;100.00;100711.31;5044425;28;20122;-69
2022/10/21 08:35:36;;;;;;;10.43;6.10;;;;;;;13.83;100.00;100721.66;5046506;28;20040;-69
2022/10/21 08:38:02;;;;;;;12.68;7.30;;;;;;;13.85;100.00;100725.09;5043216;28;20029;-68
2022/10/21 08:40:34;;;;;;;11.90;5.93;;;;;;;13.86;100.00;100732.00;5044008;28;20024;-69
2022/10/21 08:43:07;;;;;;;12.82;6.35;;;;;;;13.87;100.00;100727.69;5019291;28;20040;-70
2022/10/21 08:45:47;;;;;;;16.30;7.32;;;;;;;13.90;100.00;100733.78;5040008;28;20025;-70
2022/10/21 08:48:22;;;;;;;16.60;7.03;;;;;;;13.88;100.00;100734.59;5039297;28;20479;-70
2022/10/21 08:50:50;;;;;;;12.20;7.38;;;;;;;13.88;100.00;100738.06;5045073;28;20036;-70
2022/10/21 08:53:38;;;;;;;12.35;7.03;;;;;;;13.93;100.00;100751.03;5042887;28;20056;-70
2022/10/21 08:56:12;;;;;;;13.65;7.30;;;;;;;13.89;100.00;100757.00;5045982;28;20460;-70
2022/10/21 08:58:38;;;;;;;11.52;6.97;;;;;;;13.88;100.00;100755.28;5042312;28;20032;-70
2022/10/21 09:01:22;;;;;;;11.93;6.40;;;;;;;13.92;100.00;100747.59;5044655;28;20029;-70
2022/10/21 09:04:14;;;;;;;7.88;5.70;;;;;;;13.95;100.00;100744.16;5021686;28;20045;-68
2022/10/21 09:06:47;;;;;;;9.95;5.45;;;;;;;13.98;100.00;100743.34;5041667;28;20622;-68
2022/10/21 09:09:21;;;;;;;12.27;5.78;;;;;;;13.98;100.00;100749.38;5041992;28;20039;-70
2022/10/21 09:11:53;;;;;;;11.95;5.38;;;;;;;13.99;100.00;100753.72;5041056;28;20045;-69
2022/10/21 09:14:24;;;;;;;13.90;6.00;;;;;;;14.00;100.00;100750.25;5043692;28;20025;-71
2022/10/21 09:17:08;;;;;;;11.40;4.97;;;;;;;14.04;100.00;100751.19;5040231;28;20045;-71
2022/10/21 09:19:51;;;;;;;9.70;4.70;;;;;;;14.07;100.00;100746.03;5034116;28;20021;-71
2022/10/21 09:22:19;;;;;;;11.80;4.88;;;;;;;14.07;100.00;100757.25;5042687;28;20033;-71
2022/10/21 09:24:54;;;;;;;12.88;4.53;;;;;;;14.11;100.00;100753.84;5040651;28;20554;-70
2022/10/21 09:27:20;;;;;;;12.80;4.25;;;;;;;14.12;100.00;100745.25;5030175;28;20573;-70
2022/10/21 09:30:05;;;;;;;9.32;4.70;;;;;;;14.17;100.00;100748.75;5042724;28;20483;-71
2022/10/21 09:32:36;;;;;;;7.70;4.25;;;;;;;14.18;100.00;100734.09;5042325;28;20027;-70
2022/10/21 09:35:13;;;;;;;8.38;4.00;;;;;;;14.21;100.00;100742.78;5021590;28;20032;-76
2022/10/21 09:37:56;;;;;;;8.88;3.33;;;;;;;14.22;100.00;100733.28;5041218;28;21054;-76
2022/10/21 09:40:27;;;;;;;8.60;3.13;;;;;;;14.26;100.00;100731.59;5022737;28;20084;-76
2022/10/21 09:42:55;;;;;;;6.32;2.85;;;;;;;14.25;100.00;100727.28;5047192;28;20032;-75
2022/10/21 09:45:40;;;;;;;6.75;3.00;;;;;;;14.29;100.00;100721.28;5044195;28;20090;-74
2022/10/21 09:48:17;;;;;;;6.78;2.90;;;;;;;14.32;100.00;100722.22;5041867;28;20039;-75
2022/10/21 09:50:46;;;;;;;7.80;2.97;;;;;;;14.30;100.00;100717.84;5041737;28;20045;-74
2022/10/21 09:53:16;;;;;;;6.65;3.10;;;;;;;14.32;100.00;100722.22;5041338;28;20029;-74
2022/10/21 09:55:45;;;;;;;7.93;3.30;;;;;;;14.37;100.00;100722.22;5038665;28;20021;-75
2022/10/21 09:58:37;;;;;;;10.07;3.15;;;;;;;14.42;100.00;100723.16;5043491;28;20025;-74
2022/10/21 10:01:22;;;;;;;8.88;3.13;;;;;;;14.45;100.00;100718.88;5092286;27;20144;-48
2022/10/21 10:03:52;;;;;;;5.32;3.10;;;;;;;14.48;100.00;100721.53;5068578;28;20040;-51
2022/10/21 10:06:31;;;;;;;;;;;;;;;14.56;100.00;100731.06;5069878;28;20893;-49
2022/10/21 10:09:05;;;;;;;5.65;2.70;;;;;;;14.57;100.00;100733.69;5066287;28;20012;-48
2022/10/21 10:11:30;;;;;;;5.68;2.97;;;;;;;14.62;100.00;100736.31;5069828;28;20037;-50
2022/10/21 10:13:56;;;;;;;8.10;3.08;;;;;;;14.65;100.00;100736.34;5068826;28;20025;-51
2022/10/21 10:16:27;;;;;;;7.90;3.03;;;;;;;14.69;100.00;100740.72;5069914;28;20115;-47
2022/10/21 10:19:09;;;;;;;10.40;3.10;;;;;;;14.72;100.00;100746.78;5064313;28;20081;-51
2022/10/21 10:21:34;;;;;;;7.35;2.70;;;;;;;14.74;100.00;100751.94;5067130;28;20033;-50
2022/10/21 10:24:00;;;;;;;5.63;2.40;;;;;;;14.79;100.00;100768.41;5064000;28;20042;-50
2022/10/21 10:26:32;;;;;;;6.50;2.30;;;;;;;14.82;100.00;100754.63;5063149;28;20029;-49
2022/10/21 10:29:09;;;;;;;6.32;2.33;;;;;;;14.85;100.00;100755.50;5063661;28;20112;-49
2022/10/21 10:31:36;;;;;;;5.85;2.17;;;;;;;14.89;100.00;100756.41;5070876;28;20112;-49
2022/10/21 10:34:07;;;;;;;4.95;2.60;;;;;;;14.93;100.00;100753.88;5065854;28;20451;-50
2022/10/21 10:36:38;;;;;;;12.02;3.28;;;;;;;15.02;100.00;100758.25;5067000;28;20043;-47
2022/10/21 10:39:21;;;;;;;8.05;3.30;;;;;;;15.11;100.00;100767.84;5063130;28;20120;-49
2022/10/21 10:41:50;;;;;;;5.88;3.30;;;;;;;15.13;100.00;100766.97;5061771;28;20175;-50
2022/10/21 10:44:27;;;;;;;8.27;3.00;;;;;;;15.21;100.00;100769.63;5064127;28;20024;-51
2022/10/21 10:46:55;;;;;;;5.95;3.20;;;;;;;15.22;100.00;100755.81;5062411;28;20033;-49
2022/10/21 10:49:22;;;;;;;10.40;3.38;;;;;;;15.27;100.00;100762.75;5071447;28;20021;-50
2022/10/21 10:52:12;;;;;;;6.95;3.60;;;;;;;15.32;100.00;100767.97;5063619;28;20063;-49
2022/10/21 10:54:39;;;;;;;9.00;3.60;;;;;;;15.38;100.00;100769.75;5060374;28;20021;-48
2022/10/21 10:57:13;;;;;;;10.52;3.55;;;;;;;15.41;100.00;100773.25;5056877;28;20120;-49
2022/10/21 10:59:44;;;;;;;6.25;2.90;;;;;;;15.44;100.00;100775.84;5068987;28;20500;-48
2022/10/21 11:02:09;;;;;;;10.73;3.78;;;;;;;15.51;100.00;100768.97;5063682;28;20409;-50
2022/10/21 11:04:37;;;;;;;7.43;3.35;;;;;;;15.57;100.00;100763.81;5068260;28;20040;-47
2022/10/21 11:07:24;;;;;;;5.80;3.53;;;;;;;15.68;100.00;100756.16;5062939;28;20052;-48
2022/10/21 11:09:55;;;;;;;8.15;3.40;;;;;;;15.74;100.00;100757.03;5065267;28;20055;-49
2022/10/21 11:12:25;;;;;;;8.10;3.38;;;;;;;15.81;100.00;100748.44;5052791;28;20056;-47
2022/10/21 11:14:53;;;;;;;7.25;3.25;;;;;;;15.88;100.00;100751.91;5053408;28;20016;-49
2022/10/21 11:17:21;;;;;;;7.65;3.58;;;;;;;15.96;100.00;100749.38;5051347;28;20028;-50